Aviation Digital Data Service (ADDS)

Output produced by METARs form (0552 UTC 30 August 2015)
found at http://aviationweather.gov/adds/metars/
 
KBDL 300523Z 3006/3112 19004KT P6SM SCT060 BKN200 
     FM301700 26006KT P6SM BKN070 
     FM310300 20005KT P6SM BKN060 
     FM310900 VRB03KT 3SM BR BKN080